Pioneer Knutsen — LMIK — position and weather

sailwx.info

Track history (hours):
 
Tides and Currents Weather Stations Pressure Air Temp Water Temp Dewpoint Dewpoint Depression Visibility Wind Speed Wind Dir Waves Ship Positions

Pioneer Knutsen

Last reported at 2016-Jun-29 04:32 UTC. Time now 2016-Jun-29 09:19 UTC.
Position N 64°44' E 010°57'.

Length 70 m; draft 3.6 m.

Type: Ship. MMSI: 259393000.

Date/timePositionNaut miles runAvg speedWind from/ knotsBaromVisibWave heightAir tempDewpointWater temp
2016-Jun-29 04:32N 64°44' E 010°57'1111.2
2016-Jun-29 03:34N 64°52' E 011°16'1111.4
2016-Jun-29 02:33N 64°59' E 011°36'1211.6
2016-Jun-29 01:33N 65°09' E 011°50'9 0.5
2016-Jun-28 09:33N 65°17' E 011°58'1212.0
2016-Jun-28 08:33N 65°06' E 011°48'1111.5
2016-Jun-28 07:33N 64°57' E 011°31'9 9.5
2016-Jun-28 06:33N 64°51' E 011°14'8111.3
2016-Jun-27 23:26N 63°44' E 009°32'257 9.2
2016-Jun-26 19:33N 59°53' E 005°32'1110.7
2016-Jun-26 18:33N 59°43' E 005°28'3110.4
2016-Jun-26 15:33N 59°12' E 005°21'1111.1
2016-Jun-26 14:33N 59°03' E 005°33'7 7.3
2016-Jun-26 13:34N 58°55' E 005°35'0 0.0
2016-Jun-26 12:34N 58°55' E 005°35'0 0.0
2016-Jun-26 11:34N 58°55' E 005°35'0 0.0
2016-Jun-26 10:34N 58°55' E 005°35'0 0.0
2016-Jun-26 09:34N 58°55' E 005°35'0 0.0
2016-Jun-26 08:34N 58°55' E 005°35'0 0.0
2016-Jun-26 07:34N 58°55' E 005°35'0 0.0
2016-Jun-26 06:34N 58°55' E 005°35'1 0.8
2016-Jun-26 05:34N 58°56' E 005°34'1111.1
2016-Jun-26 04:33N 59°07' E 005°28'3311.1
2016-Jun-26 01:33N 59°40' E 005°21'1211.5
2016-Jun-26 00:32N 59°51' E 005°33'243 9.4
2016-Jun-24 22:33N 63°31' E 009°08'1110.7
2016-Jun-24 21:33N 63°41' E 009°16'7411.4
2016-Jun-24 15:05N 64°42' E 010°51'712.4
2016-Jun-24 14:33N 64°46' E 011°03'1211.8
2016-Jun-24 13:33N 64°55' E 011°22'1211.7
2016-Jun-24 12:33N 65°03' E 011°43'18 1.1
2016-Jun-23 19:29N 65°19' E 012°01'1111.9
2016-Jun-23 18:33N 65°09' E 011°50'1211.6
2016-Jun-23 17:33N 64°59' E 011°36'1111.4
2016-Jun-23 16:34N 64°52' E 011°16'337 9.0
2016-Jun-22 03:08N 59°55' E 005°31'712.2
2016-Jun-22 02:33N 59°48' E 005°34'1312.3
2016-Jun-22 01:30N 59°38' E 005°18'2210.4
2016-Jun-21 23:22N 59°15' E 005°21'910.9
2016-Jun-21 22:34N 59°07' E 005°27'1111.1
2016-Jun-21 21:33N 58°57' E 005°33'1 1.3
2016-Jun-21 20:32N 58°55' E 005°35'0 0.0
2016-Jun-21 19:32N 58°55' E 005°35'0 0.0
2016-Jun-21 18:31N 58°55' E 005°35'0 0.0
2016-Jun-21 17:31N 58°55' E 005°35'0 0.0
2016-Jun-21 16:33N 58°55' E 005°35'0 0.0
2016-Jun-21 15:33N 58°55' E 005°35'0 0.0
2016-Jun-21 14:33N 58°55' E 005°35'9 8.9
2016-Jun-21 13:33N 59°04' E 005°32'1110.7
2016-Jun-21 12:33N 59°13' E 005°20'2311.3
2016-Jun-21 10:29N 59°36' E 005°16'1011.0
2016-Jun-21 09:33N 59°44' E 005°29'143 3.3
2016-Jun-19 13:34N 62°07' E 005°05'1111.1
2016-Jun-19 12:34N 61°56' E 005°08'  
Track history (hours):
 
Tides and Currents Weather Stations Pressure Air Temp Water Temp Dewpoint Dewpoint Depression Visibility Wind Speed Wind Dir Waves Ship Positions

Pioneer Knutsen

Last reported at 2016-Jun-29 04:32 UTC. Time now 2016-Jun-29 09:19 UTC.
Position N 64°44' E 010°57'.

Length 70 m; draft 3.6 m.

Type: Ship. MMSI: 259393000.

Date/timePositionNaut miles runAvg speedWind from/ knotsBaromVisibWave heightAir tempDewpointWater temp
2016-Jun-29 04:32N 64°44' E 010°57'1111.2
2016-Jun-29 03:34N 64°52' E 011°16'1111.4
2016-Jun-29 02:33N 64°59' E 011°36'1211.6
2016-Jun-29 01:33N 65°09' E 011°50'9 0.5
2016-Jun-28 09:33N 65°17' E 011°58'1212.0
2016-Jun-28 08:33N 65°06' E 011°48'1111.5
2016-Jun-28 07:33N 64°57' E 011°31'9 9.5
2016-Jun-28 06:33N 64°51' E 011°14'8111.3
2016-Jun-27 23:26N 63°44' E 009°32'257 9.2
2016-Jun-26 19:33N 59°53' E 005°32'1110.7
2016-Jun-26 18:33N 59°43' E 005°28'3110.4
2016-Jun-26 15:33N 59°12' E 005°21'1111.1
2016-Jun-26 14:33N 59°03' E 005°33'7 7.3
2016-Jun-26 13:34N 58°55' E 005°35'0 0.0
2016-Jun-26 12:34N 58°55' E 005°35'0 0.0
2016-Jun-26 11:34N 58°55' E 005°35'0 0.0
2016-Jun-26 10:34N 58°55' E 005°35'0 0.0
2016-Jun-26 09:34N 58°55' E 005°35'0 0.0
2016-Jun-26 08:34N 58°55' E 005°35'0 0.0
2016-Jun-26 07:34N 58°55' E 005°35'0 0.0
2016-Jun-26 06:34N 58°55' E 005°35'1 0.8
2016-Jun-26 05:34N 58°56' E 005°34'1111.1
2016-Jun-26 04:33N 59°07' E 005°28'3311.1
2016-Jun-26 01:33N 59°40' E 005°21'1211.5
2016-Jun-26 00:32N 59°51' E 005°33'243 9.4
2016-Jun-24 22:33N 63°31' E 009°08'1110.7
2016-Jun-24 21:33N 63°41' E 009°16'7411.4
2016-Jun-24 15:05N 64°42' E 010°51'712.4
2016-Jun-24 14:33N 64°46' E 011°03'1211.8
2016-Jun-24 13:33N 64°55' E 011°22'1211.7
2016-Jun-24 12:33N 65°03' E 011°43'18 1.1
2016-Jun-23 19:29N 65°19' E 012°01'1111.9
2016-Jun-23 18:33N 65°09' E 011°50'1211.6
2016-Jun-23 17:33N 64°59' E 011°36'1111.4
2016-Jun-23 16:34N 64°52' E 011°16'337 9.0
2016-Jun-22 03:08N 59°55' E 005°31'712.2
2016-Jun-22 02:33N 59°48' E 005°34'1312.3
2016-Jun-22 01:30N 59°38' E 005°18'2210.4
2016-Jun-21 23:22N 59°15' E 005°21'910.9
2016-Jun-21 22:34N 59°07' E 005°27'1111.1
2016-Jun-21 21:33N 58°57' E 005°33'1 1.3
2016-Jun-21 20:32N 58°55' E 005°35'0 0.0
2016-Jun-21 19:32N 58°55' E 005°35'0 0.0
2016-Jun-21 18:31N 58°55' E 005°35'0 0.0
2016-Jun-21 17:31N 58°55' E 005°35'0 0.0
2016-Jun-21 16:33N 58°55' E 005°35'0 0.0
2016-Jun-21 15:33N 58°55' E 005°35'0 0.0
2016-Jun-21 14:33N 58°55' E 005°35'9 8.9
2016-Jun-21 13:33N 59°04' E 005°32'1110.7
2016-Jun-21 12:33N 59°13' E 005°20'2311.3
2016-Jun-21 10:29N 59°36' E 005°16'1011.0
2016-Jun-21 09:33N 59°44' E 005°29'143 3.3
2016-Jun-19 13:34N 62°07' E 005°05'1111.1
2016-Jun-19 12:34N 61°56' E 005°08'  

Dump ship's entire track history